sensor_id;sensor_type;location;lat;lon;timestamp;P1;durP1;ratioP1;P2;durP2;ratioP2
70467;SDS011;57934;51.532;7.684;2023-11-19T00:00:47;0.88;;;0.88;;
70467;SDS011;57934;51.532;7.684;2023-11-19T00:03:13;0.90;;;0.90;;
70467;SDS011;57934;51.532;7.684;2023-11-19T00:05:39;0.73;;;0.73;;
70467;SDS011;57934;51.532;7.684;2023-11-19T00:08:06;0.70;;;0.70;;
70467;SDS011;57934;51.532;7.684;2023-11-19T00:10:32;0.90;;;0.90;;
70467;SDS011;57934;51.532;7.684;2023-11-19T00:12:58;0.80;;;0.80;;
70467;SDS011;57934;51.532;7.684;2023-11-19T00:15:24;0.90;;;0.90;;
70467;SDS011;57934;51.532;7.684;2023-11-19T00:17:50;2.85;;;1.10;;
70467;SDS011;57934;51.532;7.684;2023-11-19T00:20:17;2.13;;;1.23;;
70467;SDS011;57934;51.532;7.684;2023-11-19T00:22:44;1.40;;;1.10;;
70467;SDS011;57934;51.532;7.684;2023-11-19T00:25:13;2.75;;;0.98;;
70467;SDS011;57934;51.532;7.684;2023-11-19T00:27:40;1.40;;;1.02;;
70467;SDS011;57934;51.532;7.684;2023-11-19T00:30:06;0.82;;;0.65;;
70467;SDS011;57934;51.532;7.684;2023-11-19T00:32:32;0.88;;;0.80;;
70467;SDS011;57934;51.532;7.684;2023-11-19T00:34:59;1.30;;;0.93;;
70467;SDS011;57934;51.532;7.684;2023-11-19T00:37:25;1.23;;;0.98;;
70467;SDS011;57934;51.532;7.684;2023-11-19T00:39:52;1.00;;;1.00;;
70467;SDS011;57934;51.532;7.684;2023-11-19T00:42:18;1.92;;;1.17;;
70467;SDS011;57934;51.532;7.684;2023-11-19T00:44:44;1.00;;;1.00;;
70467;SDS011;57934;51.532;7.684;2023-11-19T00:47:12;1.60;;;1.50;;
70467;SDS011;57934;51.532;7.684;2023-11-19T00:49:38;2.40;;;1.60;;
70467;SDS011;57934;51.532;7.684;2023-11-19T00:52:04;1.27;;;1.17;;
70467;SDS011;57934;51.532;7.684;2023-11-19T00:54:30;1.95;;;1.33;;
70467;SDS011;57934;51.532;7.684;2023-11-19T00:56:56;1.73;;;1.63;;
70467;SDS011;57934;51.532;7.684;2023-11-19T00:59:22;1.70;;;1.60;;
70467;SDS011;57934;51.532;7.684;2023-11-19T01:01:48;1.98;;;1.88;;
70467;SDS011;57934;51.532;7.684;2023-11-19T01:04:14;3.53;;;2.30;;
70467;SDS011;57934;51.532;7.684;2023-11-19T01:06:40;2.70;;;2.50;;
70467;SDS011;57934;51.532;7.684;2023-11-19T01:09:07;4.25;;;2.63;;
70467;SDS011;57934;51.532;7.684;2023-11-19T01:11:34;3.08;;;2.78;;
70467;SDS011;57934;51.532;7.684;2023-11-19T01:14:01;4.88;;;3.10;;
70467;SDS011;57934;51.532;7.684;2023-11-19T01:16:27;5.60;;;3.22;;
70467;SDS011;57934;51.532;7.684;2023-11-19T01:18:53;6.15;;;3.47;;
70467;SDS011;57934;51.532;7.684;2023-11-19T01:21:19;3.55;;;3.25;;
70467;SDS011;57934;51.532;7.684;2023-11-19T01:23:45;4.40;;;3.60;;
70467;SDS011;57934;51.532;7.684;2023-11-19T01:26:11;5.30;;;3.83;;
70467;SDS011;57934;51.532;7.684;2023-11-19T01:28:39;4.38;;;4.07;;
70467;SDS011;57934;51.532;7.684;2023-11-19T01:31:05;6.55;;;4.38;;
70467;SDS011;57934;51.532;7.684;2023-11-19T01:33:38;4.18;;;3.88;;
70467;SDS011;57934;51.532;7.684;2023-11-19T01:36:05;6.22;;;4.40;;
70467;SDS011;57934;51.532;7.684;2023-11-19T01:38:31;4.57;;;4.18;;
70467;SDS011;57934;51.532;7.684;2023-11-19T01:40:57;6.50;;;4.50;;
70467;SDS011;57934;51.532;7.684;2023-11-19T01:43:36;5.75;;;4.75;;
70467;SDS011;57934;51.532;7.684;2023-11-19T01:46:08;5.15;;;4.65;;
70467;SDS011;57934;51.532;7.684;2023-11-19T01:48:36;7.07;;;5.35;;
70467;SDS011;57934;51.532;7.684;2023-11-19T01:51:06;5.72;;;5.13;;
70467;SDS011;57934;51.532;7.684;2023-11-19T01:53:34;8.82;;;5.55;;
70467;SDS011;57934;51.532;7.684;2023-11-19T01:56:01;6.97;;;5.32;;
70467;SDS011;57934;51.532;7.684;2023-11-19T01:58:29;6.38;;;5.05;;
70467;SDS011;57934;51.532;7.684;2023-11-19T02:00:56;6.97;;;4.78;;
70467;SDS011;57934;51.532;7.684;2023-11-19T02:03:23;7.20;;;4.97;;
70467;SDS011;57934;51.532;7.684;2023-11-19T02:05:52;7.50;;;5.05;;
70467;SDS011;57934;51.532;7.684;2023-11-19T02:08:18;4.80;;;4.40;;
70467;SDS011;57934;51.532;7.684;2023-11-19T02:10:45;5.38;;;4.88;;
70467;SDS011;57934;51.532;7.684;2023-11-19T02:13:11;12.75;;;6.03;;
70467;SDS011;57934;51.532;7.684;2023-11-19T02:15:40;9.05;;;5.47;;
70467;SDS011;57934;51.532;7.684;2023-11-19T02:18:23;6.40;;;5.75;;
70467;SDS011;57934;51.532;7.684;2023-11-19T02:20:53;5.75;;;4.75;;
70467;SDS011;57934;51.532;7.684;2023-11-19T02:23:20;6.18;;;5.57;;
70467;SDS011;57934;51.532;7.684;2023-11-19T02:25:47;5.95;;;5.43;;
70467;SDS011;57934;51.532;7.684;2023-11-19T02:28:24;6.30;;;4.93;;
70467;SDS011;57934;51.532;7.684;2023-11-19T02:30:51;6.07;;;5.18;;
70467;SDS011;57934;51.532;7.684;2023-11-19T02:33:17;5.65;;;5.15;;
70467;SDS011;57934;51.532;7.684;2023-11-19T02:35:42;8.30;;;5.15;;
70467;SDS011;57934;51.532;7.684;2023-11-19T02:38:08;5.75;;;5.25;;
70467;SDS011;57934;51.532;7.684;2023-11-19T02:40:34;6.75;;;5.13;;
70467;SDS011;57934;51.532;7.684;2023-11-19T02:43:00;6.05;;;4.65;;
70467;SDS011;57934;51.532;7.684;2023-11-19T02:45:27;7.85;;;4.93;;
70467;SDS011;57934;51.532;7.684;2023-11-19T02:47:56;9.07;;;5.47;;
70467;SDS011;57934;51.532;7.684;2023-11-19T02:50:22;11.32;;;5.70;;
70467;SDS011;57934;51.532;7.684;2023-11-19T02:52:55;15.20;;;5.88;;
70467;SDS011;57934;51.532;7.684;2023-11-19T02:55:22;6.15;;;5.10;;
70467;SDS011;57934;51.532;7.684;2023-11-19T02:57:49;10.90;;;5.30;;
70467;SDS011;57934;51.532;7.684;2023-11-19T03:00:16;8.15;;;4.85;;
70467;SDS011;57934;51.532;7.684;2023-11-19T03:02:46;10.20;;;5.43;;
70467;SDS011;57934;51.532;7.684;2023-11-19T03:05:13;12.05;;;4.75;;
70467;SDS011;57934;51.532;7.684;2023-11-19T03:07:42;13.80;;;5.13;;
70467;SDS011;57934;51.532;7.684;2023-11-19T03:10:11;17.35;;;4.70;;
70467;SDS011;57934;51.532;7.684;2023-11-19T03:12:39;15.35;;;4.65;;
70467;SDS011;57934;51.532;7.684;2023-11-19T03:15:06;11.43;;;4.55;;
70467;SDS011;57934;51.532;7.684;2023-11-19T03:17:39;17.90;;;4.25;;
70467;SDS011;57934;51.532;7.684;2023-11-19T03:20:06;8.05;;;3.80;;
70467;SDS011;57934;51.532;7.684;2023-11-19T03:22:37;13.82;;;3.70;;
70467;SDS011;57934;51.532;7.684;2023-11-19T03:25:03;19.65;;;4.00;;
70467;SDS011;57934;51.532;7.684;2023-11-19T03:27:30;15.40;;;3.53;;
70467;SDS011;57934;51.532;7.684;2023-11-19T03:29:55;18.90;;;3.63;;
70467;SDS011;57934;51.532;7.684;2023-11-19T03:32:21;19.50;;;3.60;;
70467;SDS011;57934;51.532;7.684;2023-11-19T03:34:47;17.42;;;3.95;;
70467;SDS011;57934;51.532;7.684;2023-11-19T03:37:13;24.63;;;4.38;;
70467;SDS011;57934;51.532;7.684;2023-11-19T03:39:43;18.58;;;3.67;;
70467;SDS011;57934;51.532;7.684;2023-11-19T03:42:09;26.60;;;4.90;;
70467;SDS011;57934;51.532;7.684;2023-11-19T03:44:35;19.77;;;4.88;;
70467;SDS011;57934;51.532;7.684;2023-11-19T03:47:01;23.63;;;4.72;;
70467;SDS011;57934;51.532;7.684;2023-11-19T03:49:27;28.98;;;6.22;;
70467;SDS011;57934;51.532;7.684;2023-11-19T03:51:53;14.30;;;5.05;;
70467;SDS011;57934;51.532;7.684;2023-11-19T03:54:19;20.95;;;4.63;;
70467;SDS011;57934;51.532;7.684;2023-11-19T03:56:47;17.52;;;4.85;;
70467;SDS011;57934;51.532;7.684;2023-11-19T03:59:12;24.17;;;5.30;;
70467;SDS011;57934;51.532;7.684;2023-11-19T04:01:38;23.27;;;5.05;;
70467;SDS011;57934;51.532;7.684;2023-11-19T04:04:05;27.27;;;6.30;;
70467;SDS011;57934;51.532;7.684;2023-11-19T04:06:31;24.10;;;6.85;;
70467;SDS011;57934;51.532;7.684;2023-11-19T04:08:57;34.40;;;6.85;;
70467;SDS011;57934;51.532;7.684;2023-11-19T04:11:23;24.67;;;6.60;;
70467;SDS011;57934;51.532;7.684;2023-11-19T04:13:49;33.03;;;5.95;;
70467;SDS011;57934;51.532;7.684;2023-11-19T04:16:15;22.98;;;5.50;;
70467;SDS011;57934;51.532;7.684;2023-11-19T04:18:41;25.95;;;6.45;;
70467;SDS011;57934;51.532;7.684;2023-11-19T04:21:07;27.63;;;6.55;;
70467;SDS011;57934;51.532;7.684;2023-11-19T04:23:33;24.70;;;6.75;;
70467;SDS011;57934;51.532;7.684;2023-11-19T04:26:03;30.65;;;7.35;;
70467;SDS011;57934;51.532;7.684;2023-11-19T04:28:30;29.80;;;7.43;;
70467;SDS011;57934;51.532;7.684;2023-11-19T04:30:56;36.28;;;8.25;;
70467;SDS011;57934;51.532;7.684;2023-11-19T04:33:22;32.55;;;7.97;;
70467;SDS011;57934;51.532;7.684;2023-11-19T04:35:48;33.17;;;8.05;;
70467;SDS011;57934;51.532;7.684;2023-11-19T04:38:14;32.47;;;7.45;;
70467;SDS011;57934;51.532;7.684;2023-11-19T04:40:40;33.28;;;7.15;;
70467;SDS011;57934;51.532;7.684;2023-11-19T04:43:07;39.45;;;7.65;;
70467;SDS011;57934;51.532;7.684;2023-11-19T04:45:33;32.85;;;6.65;;
70467;SDS011;57934;51.532;7.684;2023-11-19T04:47:59;31.95;;;7.25;;
70467;SDS011;57934;51.532;7.684;2023-11-19T04:50:25;37.08;;;6.13;;
70467;SDS011;57934;51.532;7.684;2023-11-19T04:52:52;34.30;;;6.72;;
70467;SDS011;57934;51.532;7.684;2023-11-19T04:55:20;29.55;;;6.53;;
70467;SDS011;57934;51.532;7.684;2023-11-19T04:57:46;35.40;;;6.97;;
70467;SDS011;57934;51.532;7.684;2023-11-19T05:00:12;30.98;;;6.55;;
70467;SDS011;57934;51.532;7.684;2023-11-19T05:02:39;30.15;;;5.50;;
70467;SDS011;57934;51.532;7.684;2023-11-19T05:05:05;34.33;;;6.13;;
70467;SDS011;57934;51.532;7.684;2023-11-19T05:07:31;27.67;;;5.82;;
70467;SDS011;57934;51.532;7.684;2023-11-19T05:09:57;41.55;;;6.70;;
70467;SDS011;57934;51.532;7.684;2023-11-19T05:12:24;31.67;;;5.47;;
70467;SDS011;57934;51.532;7.684;2023-11-19T05:14:50;32.25;;;4.55;;
70467;SDS011;57934;51.532;7.684;2023-11-19T05:17:19;32.35;;;6.05;;
70467;SDS011;57934;51.532;7.684;2023-11-19T05:19:45;39.17;;;5.35;;
70467;SDS011;57934;51.532;7.684;2023-11-19T05:22:11;30.55;;;5.32;;
70467;SDS011;57934;51.532;7.684;2023-11-19T05:24:38;33.65;;;5.45;;
70467;SDS011;57934;51.532;7.684;2023-11-19T05:27:05;29.02;;;4.88;;
70467;SDS011;57934;51.532;7.684;2023-11-19T05:29:32;35.90;;;5.95;;
70467;SDS011;57934;51.532;7.684;2023-11-19T05:31:58;33.65;;;5.35;;
70467;SDS011;57934;51.532;7.684;2023-11-19T05:34:24;29.63;;;4.65;;
70467;SDS011;57934;51.532;7.684;2023-11-19T05:36:50;30.92;;;5.15;;
70467;SDS011;57934;51.532;7.684;2023-11-19T05:39:17;30.40;;;5.63;;
70467;SDS011;57934;51.532;7.684;2023-11-19T05:41:44;34.63;;;5.13;;
70467;SDS011;57934;51.532;7.684;2023-11-19T05:44:10;29.58;;;5.13;;
70467;SDS011;57934;51.532;7.684;2023-11-19T05:46:36;32.83;;;4.88;;
70467;SDS011;57934;51.532;7.684;2023-11-19T05:49:06;24.15;;;4.45;;
70467;SDS011;57934;51.532;7.684;2023-11-19T05:51:32;36.30;;;5.30;;
70467;SDS011;57934;51.532;7.684;2023-11-19T05:54:01;28.35;;;4.75;;
70467;SDS011;57934;51.532;7.684;2023-11-19T05:56:27;25.05;;;4.60;;
70467;SDS011;57934;51.532;7.684;2023-11-19T05:58:58;33.70;;;5.25;;
70467;SDS011;57934;51.532;7.684;2023-11-19T06:01:26;32.67;;;5.05;;
70467;SDS011;57934;51.532;7.684;2023-11-19T06:03:52;36.83;;;5.90;;
70467;SDS011;57934;51.532;7.684;2023-11-19T06:06:18;33.05;;;5.53;;
70467;SDS011;57934;51.532;7.684;2023-11-19T06:08:44;29.77;;;4.78;;
70467;SDS011;57934;51.532;7.684;2023-11-19T06:11:10;24.95;;;5.30;;
70467;SDS011;57934;51.532;7.684;2023-11-19T06:13:44;40.30;;;5.68;;
70467;SDS011;57934;51.532;7.684;2023-11-19T06:16:10;33.17;;;5.25;;
70467;SDS011;57934;51.532;7.684;2023-11-19T06:18:36;24.90;;;5.40;;
70467;SDS011;57934;51.532;7.684;2023-11-19T06:21:02;29.10;;;5.05;;
70467;SDS011;57934;51.532;7.684;2023-11-19T06:23:29;31.05;;;4.82;;
70467;SDS011;57934;51.532;7.684;2023-11-19T06:25:54;31.80;;;4.20;;
70467;SDS011;57934;51.532;7.684;2023-11-19T06:28:20;27.85;;;4.55;;
70467;SDS011;57934;51.532;7.684;2023-11-19T06:30:46;27.50;;;4.68;;
70467;SDS011;57934;51.532;7.684;2023-11-19T06:33:13;22.65;;;4.70;;
70467;SDS011;57934;51.532;7.684;2023-11-19T06:35:39;32.72;;;4.43;;
70467;SDS011;57934;51.532;7.684;2023-11-19T06:38:06;31.67;;;4.15;;
70467;SDS011;57934;51.532;7.684;2023-11-19T06:40:32;28.05;;;4.90;;
70467;SDS011;57934;51.532;7.684;2023-11-19T06:42:59;34.90;;;5.72;;
70467;SDS011;57934;51.532;7.684;2023-11-19T06:45:25;30.10;;;4.50;;
70467;SDS011;57934;51.532;7.684;2023-11-19T06:47:51;29.05;;;4.53;;
70467;SDS011;57934;51.532;7.684;2023-11-19T06:50:17;21.85;;;4.28;;
70467;SDS011;57934;51.532;7.684;2023-11-19T06:52:44;30.83;;;5.05;;
70467;SDS011;57934;51.532;7.684;2023-11-19T06:55:11;25.33;;;5.18;;
70467;SDS011;57934;51.532;7.684;2023-11-19T06:57:37;28.92;;;4.93;;
70467;SDS011;57934;51.532;7.684;2023-11-19T07:00:03;28.92;;;4.45;;
70467;SDS011;57934;51.532;7.684;2023-11-19T07:02:31;20.85;;;4.40;;
70467;SDS011;57934;51.532;7.684;2023-11-19T07:04:57;34.75;;;5.03;;
70467;SDS011;57934;51.532;7.684;2023-11-19T07:07:23;26.08;;;4.75;;
70467;SDS011;57934;51.532;7.684;2023-11-19T07:09:49;27.38;;;4.82;;
70467;SDS011;57934;51.532;7.684;2023-11-19T07:12:16;30.55;;;6.22;;
70467;SDS011;57934;51.532;7.684;2023-11-19T07:14:42;25.02;;;4.55;;
70467;SDS011;57934;51.532;7.684;2023-11-19T07:17:08;28.23;;;4.75;;
70467;SDS011;57934;51.532;7.684;2023-11-19T07:19:37;22.27;;;3.92;;
70467;SDS011;57934;51.532;7.684;2023-11-19T07:22:04;26.17;;;5.32;;
70467;SDS011;57934;51.532;7.684;2023-11-19T07:24:30;29.02;;;4.75;;
70467;SDS011;57934;51.532;7.684;2023-11-19T07:26:56;29.23;;;5.47;;
70467;SDS011;57934;51.532;7.684;2023-11-19T07:29:22;22.45;;;3.95;;
70467;SDS011;57934;51.532;7.684;2023-11-19T07:31:48;29.48;;;3.90;;
70467;SDS011;57934;51.532;7.684;2023-11-19T07:34:14;21.60;;;3.70;;
70467;SDS011;57934;51.532;7.684;2023-11-19T07:36:40;29.80;;;5.32;;
70467;SDS011;57934;51.532;7.684;2023-11-19T07:39:07;24.38;;;3.85;;
70467;SDS011;57934;51.532;7.684;2023-11-19T07:41:34;28.48;;;4.95;;
70467;SDS011;57934;51.532;7.684;2023-11-19T07:44:02;19.55;;;4.53;;
70467;SDS011;57934;51.532;7.684;2023-11-19T07:46:28;29.27;;;5.53;;
70467;SDS011;57934;51.532;7.684;2023-11-19T07:48:54;25.55;;;4.43;;
70467;SDS011;57934;51.532;7.684;2023-11-19T07:51:20;29.88;;;4.82;;
70467;SDS011;57934;51.532;7.684;2023-11-19T07:53:47;25.30;;;4.93;;
70467;SDS011;57934;51.532;7.684;2023-11-19T07:56:13;27.30;;;4.63;;
70467;SDS011;57934;51.532;7.684;2023-11-19T07:58:39;19.38;;;3.50;;
70467;SDS011;57934;51.532;7.684;2023-11-19T08:01:05;29.27;;;4.40;;
70467;SDS011;57934;51.532;7.684;2023-11-19T08:03:31;27.15;;;4.85;;
70467;SDS011;57934;51.532;7.684;2023-11-19T08:05:57;20.10;;;3.72;;
70467;SDS011;57934;51.532;7.684;2023-11-19T08:08:23;21.42;;;3.90;;
70467;SDS011;57934;51.532;7.684;2023-11-19T08:10:49;26.67;;;4.57;;
70467;SDS011;57934;51.532;7.684;2023-11-19T08:13:19;26.88;;;5.35;;
70467;SDS011;57934;51.532;7.684;2023-11-19T08:15:45;30.88;;;4.53;;
70467;SDS011;57934;51.532;7.684;2023-11-19T08:18:12;31.73;;;4.55;;
70467;SDS011;57934;51.532;7.684;2023-11-19T08:20:39;28.45;;;3.88;;
70467;SDS011;57934;51.532;7.684;2023-11-19T08:23:05;25.83;;;4.28;;
70467;SDS011;57934;51.532;7.684;2023-11-19T08:25:31;30.30;;;5.53;;
70467;SDS011;57934;51.532;7.684;2023-11-19T08:27:59;31.92;;;4.72;;
70467;SDS011;57934;51.532;7.684;2023-11-19T08:30:26;21.42;;;4.10;;
70467;SDS011;57934;51.532;7.684;2023-11-19T08:32:52;27.52;;;4.80;;
70467;SDS011;57934;51.532;7.684;2023-11-19T08:35:18;31.75;;;4.53;;
70467;SDS011;57934;51.532;7.684;2023-11-19T08:37:44;26.13;;;3.97;;
70467;SDS011;57934;51.532;7.684;2023-11-19T08:40:11;26.15;;;4.10;;
70467;SDS011;57934;51.532;7.684;2023-11-19T08:42:40;25.33;;;4.50;;
70467;SDS011;57934;51.532;7.684;2023-11-19T08:45:07;28.75;;;4.68;;
70467;SDS011;57934;51.532;7.684;2023-11-19T08:47:37;29.55;;;4.40;;
70467;SDS011;57934;51.532;7.684;2023-11-19T08:50:03;25.65;;;4.47;;
70467;SDS011;57934;51.532;7.684;2023-11-19T08:52:30;31.35;;;4.70;;
70467;SDS011;57934;51.532;7.684;2023-11-19T08:54:56;23.45;;;4.30;;
70467;SDS011;57934;51.532;7.684;2023-11-19T08:57:22;27.58;;;4.72;;
70467;SDS011;57934;51.532;7.684;2023-11-19T08:59:48;30.35;;;5.07;;
70467;SDS011;57934;51.532;7.684;2023-11-19T09:02:14;36.30;;;5.00;;
70467;SDS011;57934;51.532;7.684;2023-11-19T09:04:41;23.95;;;4.13;;
70467;SDS011;57934;51.532;7.684;2023-11-19T09:07:07;33.05;;;5.28;;
70467;SDS011;57934;51.532;7.684;2023-11-19T09:09:35;28.40;;;5.25;;
70467;SDS011;57934;51.532;7.684;2023-11-19T09:12:02;30.00;;;5.53;;
70467;SDS011;57934;51.532;7.684;2023-11-19T09:14:29;30.67;;;5.07;;
70467;SDS011;57934;51.532;7.684;2023-11-19T09:16:56;31.40;;;4.28;;
70467;SDS011;57934;51.532;7.684;2023-11-19T09:19:22;32.83;;;5.00;;
70467;SDS011;57934;51.532;7.684;2023-11-19T09:21:48;29.75;;;5.38;;
70467;SDS011;57934;51.532;7.684;2023-11-19T09:24:15;32.25;;;4.72;;
70467;SDS011;57934;51.532;7.684;2023-11-19T09:26:41;32.78;;;5.63;;
70467;SDS011;57934;51.532;7.684;2023-11-19T09:29:07;24.83;;;4.68;;
70467;SDS011;57934;51.532;7.684;2023-11-19T09:31:33;35.42;;;6.32;;
70467;SDS011;57934;51.532;7.684;2023-11-19T09:34:00;30.05;;;5.47;;
70467;SDS011;57934;51.532;7.684;2023-11-19T09:36:27;38.25;;;6.05;;
70467;SDS011;57934;51.532;7.684;2023-11-19T09:38:52;21.75;;;4.07;;
70467;SDS011;57934;51.532;7.684;2023-11-19T09:41:19;26.95;;;4.43;;
70467;SDS011;57934;51.532;7.684;2023-11-19T09:43:45;27.45;;;5.78;;
70467;SDS011;57934;51.532;7.684;2023-11-19T09:46:12;27.95;;;4.28;;
70467;SDS011;57934;51.532;7.684;2023-11-19T09:48:40;24.13;;;4.90;;
70467;SDS011;57934;51.532;7.684;2023-11-19T09:51:11;29.77;;;4.40;;
70467;SDS011;57934;51.532;7.684;2023-11-19T09:53:37;32.70;;;5.30;;
70467;SDS011;57934;51.532;7.684;2023-11-19T09:56:04;30.33;;;5.03;;
70467;SDS011;57934;51.532;7.684;2023-11-19T09:58:33;31.38;;;5.35;;
70467;SDS011;57934;51.532;7.684;2023-11-19T10:01:00;25.20;;;4.40;;
70467;SDS011;57934;51.532;7.684;2023-11-19T10:03:27;27.80;;;4.68;;
70467;SDS011;57934;51.532;7.684;2023-11-19T10:05:57;34.33;;;5.40;;
70467;SDS011;57934;51.532;7.684;2023-11-19T10:08:23;32.22;;;4.97;;
70467;SDS011;57934;51.532;7.684;2023-11-19T10:10:49;29.45;;;5.32;;
70467;SDS011;57934;51.532;7.684;2023-11-19T10:13:15;30.83;;;4.93;;
70467;SDS011;57934;51.532;7.684;2023-11-19T10:15:41;25.85;;;4.28;;
70467;SDS011;57934;51.532;7.684;2023-11-19T10:18:09;30.88;;;4.80;;
70467;SDS011;57934;51.532;7.684;2023-11-19T10:20:36;26.33;;;5.75;;
70467;SDS011;57934;51.532;7.684;2023-11-19T10:23:02;37.33;;;5.05;;
70467;SDS011;57934;51.532;7.684;2023-11-19T10:25:29;30.02;;;4.88;;
70467;SDS011;57934;51.532;7.684;2023-11-19T10:27:55;32.72;;;5.03;;
70467;SDS011;57934;51.532;7.684;2023-11-19T10:30:23;33.80;;;5.60;;
70467;SDS011;57934;51.532;7.684;2023-11-19T10:33:03;25.48;;;4.90;;
70467;SDS011;57934;51.532;7.684;2023-11-19T10:35:29;30.63;;;4.90;;
70467;SDS011;57934;51.532;7.684;2023-11-19T10:37:55;30.75;;;5.78;;
70467;SDS011;57934;51.532;7.684;2023-11-19T10:40:21;30.67;;;4.47;;
70467;SDS011;57934;51.532;7.684;2023-11-19T10:42:47;27.98;;;4.55;;
70467;SDS011;57934;51.532;7.684;2023-11-19T10:45:23;33.58;;;4.95;;
70467;SDS011;57934;51.532;7.684;2023-11-19T10:47:51;29.88;;;5.05;;
70467;SDS011;57934;51.532;7.684;2023-11-19T10:50:18;25.38;;;4.40;;
70467;SDS011;57934;51.532;7.684;2023-11-19T10:52:44;34.20;;;5.57;;
70467;SDS011;57934;51.532;7.684;2023-11-19T10:55:14;29.25;;;4.82;;
70467;SDS011;57934;51.532;7.684;2023-11-19T10:57:43;26.42;;;4.63;;
70467;SDS011;57934;51.532;7.684;2023-11-19T11:00:12;24.85;;;4.68;;
70467;SDS011;57934;51.532;7.684;2023-11-19T11:02:45;21.58;;;4.22;;
70467;SDS011;57934;51.532;7.684;2023-11-19T11:05:15;28.67;;;4.63;;
70467;SDS011;57934;51.532;7.684;2023-11-19T11:07:43;17.35;;;4.20;;
70467;SDS011;57934;51.532;7.684;2023-11-19T11:10:10;26.40;;;4.15;;
70467;SDS011;57934;51.532;7.684;2023-11-19T11:12:38;26.02;;;4.32;;
70467;SDS011;57934;51.532;7.684;2023-11-19T11:15:07;26.63;;;5.28;;
70467;SDS011;57934;51.532;7.684;2023-11-19T11:17:38;22.73;;;4.75;;
70467;SDS011;57934;51.532;7.684;2023-11-19T11:20:05;27.40;;;5.15;;
70467;SDS011;57934;51.532;7.684;2023-11-19T11:22:37;22.73;;;4.15;;
70467;SDS011;57934;51.532;7.684;2023-11-19T11:25:36;26.67;;;5.00;;
70467;SDS011;57934;51.532;7.684;2023-11-19T11:28:29;30.50;;;4.70;;
70467;SDS011;57934;51.532;7.684;2023-11-19T11:31:15;25.88;;;4.35;;
70467;SDS011;57934;51.532;7.684;2023-11-19T11:36:33;24.85;;;4.95;;
70467;SDS011;57934;51.532;7.684;2023-11-19T11:39:28;28.75;;;5.65;;
70467;SDS011;57934;51.532;7.684;2023-11-19T11:47:59;21.70;;;4.88;;
70467;SDS011;57934;51.532;7.684;2023-11-19T11:50:22;23.60;;;3.58;;
70467;SDS011;57934;51.532;7.684;2023-11-19T11:55:24;22.17;;;4.88;;
70467;SDS011;57934;51.532;7.684;2023-11-19T11:57:50;26.92;;;5.22;;
70467;SDS011;57934;51.532;7.684;2023-11-19T12:00:26;23.95;;;4.05;;
70467;SDS011;57934;51.532;7.684;2023-11-19T12:02:55;27.38;;;6.00;;
70467;SDS011;57934;51.532;7.684;2023-11-19T12:05:23;31.40;;;4.32;;
70467;SDS011;57934;51.532;7.684;2023-11-19T12:08:24;25.25;;;4.25;;
70467;SDS011;57934;51.532;7.684;2023-11-19T12:10:50;30.88;;;4.45;;
70467;SDS011;57934;51.532;7.684;2023-11-19T12:13:17;19.88;;;4.18;;
70467;SDS011;57934;51.532;7.684;2023-11-19T12:18:20;24.65;;;4.53;;
70467;SDS011;57934;51.532;7.684;2023-11-19T12:20:47;25.55;;;4.60;;
70467;SDS011;57934;51.532;7.684;2023-11-19T12:23:13;24.08;;;3.88;;
70467;SDS011;57934;51.532;7.684;2023-11-19T12:25:40;22.98;;;4.10;;
70467;SDS011;57934;51.532;7.684;2023-11-19T12:28:11;21.02;;;3.72;;
70467;SDS011;57934;51.532;7.684;2023-11-19T12:30:38;26.20;;;4.65;;
70467;SDS011;57934;51.532;7.684;2023-11-19T12:33:11;26.27;;;3.63;;
70467;SDS011;57934;51.532;7.684;2023-11-19T12:35:41;23.80;;;3.90;;
70467;SDS011;57934;51.532;7.684;2023-11-19T12:38:08;18.80;;;3.33;;
70467;SDS011;57934;51.532;7.684;2023-11-19T12:40:44;23.23;;;3.38;;
70467;SDS011;57934;51.532;7.684;2023-11-19T12:43:10;22.63;;;3.72;;
70467;SDS011;57934;51.532;7.684;2023-11-19T12:45:36;21.00;;;4.93;;
70467;SDS011;57934;51.532;7.684;2023-11-19T12:48:05;23.27;;;4.00;;
70467;SDS011;57934;51.532;7.684;2023-11-19T12:53:22;26.08;;;4.30;;
70467;SDS011;57934;51.532;7.684;2023-11-19T12:55:48;25.85;;;4.45;;
70467;SDS011;57934;51.532;7.684;2023-11-19T12:58:28;20.70;;;3.33;;
70467;SDS011;57934;51.532;7.684;2023-11-19T13:01:05;16.00;;;3.85;;
70467;SDS011;57934;51.532;7.684;2023-11-19T13:03:33;22.45;;;4.05;;
70467;SDS011;57934;51.532;7.684;2023-11-19T13:06:04;14.77;;;3.70;;
70467;SDS011;57934;51.532;7.684;2023-11-19T13:08:40;16.95;;;3.38;;
70467;SDS011;57934;51.532;7.684;2023-11-19T13:11:31;22.30;;;3.90;;
70467;SDS011;57934;51.532;7.684;2023-11-19T13:14:02;20.80;;;4.35;;
70467;SDS011;57934;51.532;7.684;2023-11-19T13:16:30;18.10;;;3.30;;
70467;SDS011;57934;51.532;7.684;2023-11-19T13:18:57;22.67;;;3.88;;
70467;SDS011;57934;51.532;7.684;2023-11-19T13:21:24;22.85;;;3.60;;
70467;SDS011;57934;51.532;7.684;2023-11-19T13:23:50;23.25;;;3.58;;
70467;SDS011;57934;51.532;7.684;2023-11-19T13:26:16;28.88;;;3.97;;
70467;SDS011;57934;51.532;7.684;2023-11-19T13:28:42;19.88;;;3.97;;
70467;SDS011;57934;51.532;7.684;2023-11-19T13:31:08;21.80;;;3.85;;
70467;SDS011;57934;51.532;7.684;2023-11-19T13:33:36;15.60;;;3.45;;
70467;SDS011;57934;51.532;7.684;2023-11-19T13:36:02;22.58;;;4.38;;
70467;SDS011;57934;51.532;7.684;2023-11-19T13:38:32;24.95;;;4.35;;
70467;SDS011;57934;51.532;7.684;2023-11-19T13:40:58;31.65;;;4.82;;
70467;SDS011;57934;51.532;7.684;2023-11-19T13:43:25;25.08;;;4.40;;
70467;SDS011;57934;51.532;7.684;2023-11-19T13:45:56;22.35;;;4.38;;
70467;SDS011;57934;51.532;7.684;2023-11-19T13:48:24;30.05;;;4.90;;
70467;SDS011;57934;51.532;7.684;2023-11-19T13:50:50;26.60;;;3.90;;
70467;SDS011;57934;51.532;7.684;2023-11-19T13:53:16;27.58;;;3.97;;
70467;SDS011;57934;51.532;7.684;2023-11-19T13:55:42;26.60;;;5.13;;
70467;SDS011;57934;51.532;7.684;2023-11-19T13:58:09;26.90;;;3.50;;
70467;SDS011;57934;51.532;7.684;2023-11-19T14:00:36;15.18;;;3.20;;
70467;SDS011;57934;51.532;7.684;2023-11-19T14:03:02;25.48;;;3.65;;
70467;SDS011;57934;51.532;7.684;2023-11-19T14:05:28;17.17;;;2.67;;
70467;SDS011;57934;51.532;7.684;2023-11-19T14:07:54;18.88;;;3.53;;
70467;SDS011;57934;51.532;7.684;2023-11-19T14:10:22;17.70;;;3.08;;
70467;SDS011;57934;51.532;7.684;2023-11-19T14:12:48;29.55;;;4.63;;
70467;SDS011;57934;51.532;7.684;2023-11-19T14:15:15;26.10;;;3.55;;
70467;SDS011;57934;51.532;7.684;2023-11-19T14:17:45;23.40;;;3.42;;
70467;SDS011;57934;51.532;7.684;2023-11-19T14:20:11;17.60;;;3.00;;
70467;SDS011;57934;51.532;7.684;2023-11-19T14:22:41;25.13;;;3.33;;
70467;SDS011;57934;51.532;7.684;2023-11-19T14:25:08;14.75;;;3.28;;
70467;SDS011;57934;51.532;7.684;2023-11-19T14:27:38;18.83;;;3.58;;
70467;SDS011;57934;51.532;7.684;2023-11-19T14:30:05;23.83;;;3.45;;
70467;SDS011;57934;51.532;7.684;2023-11-19T14:32:35;26.75;;;4.05;;
70467;SDS011;57934;51.532;7.684;2023-11-19T14:35:01;27.05;;;4.05;;
70467;SDS011;57934;51.532;7.684;2023-11-19T14:37:27;26.98;;;3.45;;
70467;SDS011;57934;51.532;7.684;2023-11-19T14:39:53;19.17;;;3.25;;
70467;SDS011;57934;51.532;7.684;2023-11-19T14:42:19;16.92;;;3.55;;
70467;SDS011;57934;51.532;7.684;2023-11-19T14:44:45;28.52;;;3.50;;
70467;SDS011;57934;51.532;7.684;2023-11-19T14:47:11;18.75;;;3.40;;
70467;SDS011;57934;51.532;7.684;2023-11-19T14:49:37;20.85;;;3.08;;
70467;SDS011;57934;51.532;7.684;2023-11-19T14:52:03;16.80;;;3.45;;
70467;SDS011;57934;51.532;7.684;2023-11-19T14:54:30;25.35;;;3.97;;
70467;SDS011;57934;51.532;7.684;2023-11-19T14:56:56;23.75;;;4.40;;